Time;durP1;ratioP1;P1;durP2;ratioP2;P2;SDS_P1;SDS_P2;PMS_P1;PMS_P2;Temp;Humidity;BMP_temperature;BMP_pressure;BME280_temperature;BME280_humidity;BME280_pressure;Samples;Min_cycle;Max_cycle;Signal;HPM_P1;HPM_P2
2023/03/13 00:00:28;;;;;;;24.05;9.30;;;;;;;8.31;55.24;101150.25;4973362;28;20030;-84
2023/03/13 00:02:53;;;;;;;16.48;7.38;;;;;;;8.11;54.74;101156.81;4974085;28;20030;-82
2023/03/13 00:05:18;;;;;;;14.60;7.45;;;;;;;8.19;55.23;101160.72;4973677;28;20031;-83
2023/03/13 00:07:44;;;;;;;21.85;7.90;;;;;;;8.25;55.38;101161.31;4973900;28;20022;-81
2023/03/13 00:10:09;;;;;;;27.23;7.32;;;;;;;8.17;55.24;101167.13;4976617;28;20038;-81
2023/03/13 00:12:35;;;;;;;16.73;7.80;;;;;;;8.15;54.98;101161.88;4993136;28;20019;-80
2023/03/13 00:15:00;;;;;;;14.45;6.93;;;;;;;8.19;55.40;101170.59;4994868;28;20093;-82
2023/03/13 00:17:26;;;;;;;12.73;7.90;;;;;;;8.18;55.38;101169.75;4974240;28;20097;-82
2023/03/13 00:19:51;;;;;;;42.90;12.35;;;;;;;8.20;55.20;101162.44;4974085;28;20030;-82
2023/03/13 00:22:17;;;;;;;21.13;9.52;;;;;;;8.03;55.51;101151.06;4973414;28;20402;-82
2023/03/13 00:24:42;;;;;;;27.95;8.48;;;;;;;8.19;55.74;101173.28;4973347;28;20039;-83
2023/03/13 00:27:07;;;;;;;17.38;8.00;;;;;;;8.19;55.32;101159.88;4973515;28;20479;-81
2023/03/13 00:29:33;;;;;;;19.70;8.85;;;;;;;8.09;55.34;101153.38;4973239;28;20038;-82
2023/03/13 00:32:00;;;;;;;31.73;8.75;;;;;;;8.16;55.13;101165.44;4972929;28;20018;-82
2023/03/13 00:34:26;;;;;;;25.10;9.48;;;;;;;8.12;55.08;101164.75;4973102;28;20137;-82
2023/03/13 00:36:53;;;;;;;14.38;8.02;;;;;;;8.04;55.67;101168.88;4973162;28;20027;-82
2023/03/13 00:39:19;;;;;;;30.10;9.00;;;;;;;8.01;56.09;101164.56;4973172;28;20094;-82
2023/03/13 00:41:44;;;;;;;12.00;8.13;;;;;;;8.06;55.61;101169.63;4973547;28;20110;-81
2023/03/13 00:44:10;;;;;;;16.50;7.93;;;;;;;7.81;56.30;101169.41;4972144;28;20037;-82
2023/03/13 00:46:36;;;;;;;18.70;8.05;;;;;;;7.75;56.59;101170.66;4971986;28;20030;-82
2023/03/13 00:49:01;;;;;;;13.68;8.25;;;;;;;7.55;56.81;101155.81;4971585;28;20038;-82
2023/03/13 00:51:28;;;;;;;13.52;8.38;;;;;;;7.75;56.54;101175.16;4972706;28;20038;-81
2023/03/13 00:54:01;;;;;;;14.63;8.60;;;;;;;7.78;56.09;101169.63;4973320;28;20505;-81
2023/03/13 00:56:27;;;;;;;15.10;7.93;;;;;;;7.81;56.04;101172.09;4973625;28;20038;-82
2023/03/13 00:58:53;;;;;;;14.02;7.63;;;;;;;7.76;56.29;101174.22;4973020;28;20031;-83
2023/03/13 01:01:24;;;;;;;18.10;7.35;;;;;;;7.79;55.92;101172.22;4972529;28;20023;-81
2023/03/13 01:03:52;;;;;;;12.88;7.63;;;;;;;7.79;56.11;101177.56;4973487;28;20062;-81
2023/03/13 01:06:21;;;;;;;13.82;7.05;;;;;;;7.84;56.05;101179.94;4973249;28;20023;-81
2023/03/13 01:08:47;;;;;;;22.20;8.68;;;;;;;7.71;55.98;101157.53;4975869;28;20137;-80
2023/03/13 01:11:18;;;;;;;18.63;9.18;;;;;;;7.79;56.34;101182.94;4987702;28;20023;-79
2023/03/13 01:13:45;;;;;;;22.55;9.48;;;;;;;7.71;56.55;101170.94;4989415;28;20035;-82
2023/03/13 01:16:16;;;;;;;19.90;9.00;;;;;;;7.83;56.06;101188.97;4972559;28;20102;-82
2023/03/13 01:18:44;;;;;;;11.50;6.90;;;;;;;7.85;56.58;101187.03;4971286;28;20058;-80
2023/03/13 01:21:11;;;;;;;17.98;8.52;;;;;;;7.81;56.27;101185.50;4972084;28;20030;-81
2023/03/13 01:23:36;;;;;;;18.45;11.20;;;;;;;7.74;56.55;101178.78;4971838;28;20058;-79
2023/03/13 01:26:04;;;;;;;22.60;10.35;;;;;;;7.76;56.66;101182.25;4971648;28;20034;-81
2023/03/13 01:28:30;;;;;;;18.38;10.65;;;;;;;7.77;56.29;101197.38;4971822;28;20023;-82
2023/03/13 01:30:56;;;;;;;17.50;10.15;;;;;;;7.70;56.73;101196.00;4972010;28;20046;-83
2023/03/13 01:33:21;;;;;;;20.33;11.00;;;;;;;7.67;57.17;101195.22;4972364;28;20027;-82
2023/03/13 01:35:47;;;;;;;47.40;12.15;;;;;;;7.60;56.59;101199.22;4971386;28;20141;-82
2023/03/13 01:38:13;;;;;;;26.92;12.88;;;;;;;7.58;56.87;101205.63;4971492;28;20356;-81
2023/03/13 01:40:48;;;;;;;21.63;9.93;;;;;;;7.60;57.14;101196.56;4971515;28;20117;-81
2023/03/13 01:43:24;;;;;;;23.67;10.68;;;;;;;7.50;57.21;101195.38;4971818;28;20022;-81
2023/03/13 01:46:13;;;;;;;19.08;10.35;;;;;;;7.46;56.87;101201.84;4971702;28;20035;-80
2023/03/13 01:49:00;;;;;;;24.20;10.85;;;;;;;7.30;57.21;101197.50;4971837;28;20030;-81
2023/03/13 01:51:29;;;;;;;17.20;10.50;;;;;;;7.35;57.50;101215.00;4972138;28;20105;-82
2023/03/13 01:54:07;;;;;;;18.17;9.63;;;;;;;7.38;57.63;101214.84;4971908;28;20740;-81
2023/03/13 01:56:48;;;;;;;15.93;9.32;;;;;;;7.34;57.51;101212.44;4971303;28;20425;-81
2023/03/13 01:59:18;;;;;;;14.73;8.98;;;;;;;7.36;57.11;101224.78;4972362;28;20406;-81
2023/03/13 02:01:46;;;;;;;14.32;9.38;;;;;;;7.40;57.14;101230.81;4971966;28;20038;-82
2023/03/13 02:04:14;;;;;;;19.83;10.27;;;;;;;7.32;57.51;101241.94;4970416;28;20023;-80
2023/03/13 02:06:44;;;;;;;23.35;9.38;;;;;;;7.29;57.65;101242.13;4971712;28;20034;-82
2023/03/13 02:09:14;;;;;;;18.17;8.93;;;;;;;7.25;57.50;101251.28;4987110;28;20509;-82
2023/03/13 02:12:03;;;;;;;19.00;8.75;;;;;;;7.25;57.25;101243.25;4989227;28;20098;-83
2023/03/13 02:14:33;;;;;;;19.98;10.95;;;;;;;7.26;57.72;101253.00;4973775;28;20105;-82
2023/03/13 02:17:00;;;;;;;18.63;10.02;;;;;;;7.28;57.54;101244.91;4971957;28;20026;-82
2023/03/13 02:19:35;;;;;;;16.52;9.95;;;;;;;7.13;57.17;101233.25;4972308;28;20114;-80
2023/03/13 02:22:30;;;;;;;18.00;9.45;;;;;;;7.33;57.46;101254.38;4971103;28;20038;-81
2023/03/13 02:25:37;;;;;;;22.67;11.32;;;;;;;7.30;57.26;101259.06;4971432;28;20045;-80
2023/03/13 02:28:04;;;;;;;25.63;10.60;;;;;;;7.30;57.08;101270.63;4911284;29;20044;-79
2023/03/13 02:30:31;;;;;;;20.05;10.18;;;;;;;7.25;56.97;101264.66;4912117;29;20059;-82
2023/03/13 02:32:58;;;;;;;28.00;10.45;;;;;;;7.32;57.04;101274.06;4911987;29;20119;-81
2023/03/13 02:35:24;;;;;;;18.10;8.93;;;;;;;7.37;56.69;101279.16;4912173;29;20200;-83
2023/03/13 02:37:54;;;;;;;14.77;8.70;;;;;;;7.36;56.55;101280.09;4911607;29;20115;-81
2023/03/13 02:40:25;;;;;;;18.67;7.15;;;;;;;7.22;56.14;101262.16;4913590;29;20032;-80
2023/03/13 02:42:53;;;;;;;9.55;5.85;;;;;;;7.31;55.00;101275.00;4921079;29;20028;-79
2023/03/13 02:45:19;;;;;;;11.07;6.38;;;;;;;7.38;55.24;101288.91;4928794;29;20047;-80
2023/03/13 02:47:44;;;;;;;16.85;6.43;;;;;;;7.34;55.19;101282.84;4929281;29;20032;-82
2023/03/13 02:50:12;;;;;;;20.90;7.55;;;;;;;7.40;54.87;101292.38;4914809;29;20123;-80
2023/03/13 02:52:45;;;;;;;16.10;8.25;;;;;;;7.22;55.79;101282.69;4911272;29;20055;-81
2023/03/13 02:55:17;;;;;;;15.70;7.75;;;;;;;7.29;55.56;101301.00;4910964;29;20044;-81
2023/03/13 02:57:43;;;;;;;17.30;7.85;;;;;;;7.26;55.70;101306.53;4910674;29;20064;-82
2023/03/13 03:00:11;;;;;;;14.05;7.35;;;;;;;7.29;55.97;101306.34;4910604;29;20135;-80
2023/03/13 03:02:37;;;;;;;15.85;7.93;;;;;;;7.32;55.92;101311.53;4910843;29;20150;-81
2023/03/13 03:05:04;;;;;;;16.70;8.05;;;;;;;7.28;55.55;101304.59;4948573;28;20162;-81
2023/03/13 03:07:29;;;;;;;19.95;9.15;;;;;;;7.19;55.83;101306.94;4981784;28;20058;-81
2023/03/13 03:09:55;;;;;;;14.48;8.00;;;;;;;7.18;55.91;101313.25;4986657;28;20110;-82
2023/03/13 03:12:21;;;;;;;16.45;9.63;;;;;;;7.10;56.30;101316.34;4980081;28;20019;-82
2023/03/13 03:14:46;;;;;;;18.33;10.25;;;;;;;7.16;56.50;101331.19;4971675;28;20062;-81
2023/03/13 03:17:12;;;;;;;16.92;8.82;;;;;;;7.08;56.22;101329.81;4974211;28;20026;-80
2023/03/13 03:19:37;;;;;;;18.75;9.18;;;;;;;7.11;56.22;101328.78;4974282;28;20146;-80
2023/03/13 03:22:03;;;;;;;13.57;8.90;;;;;;;7.13;55.85;101338.44;4972765;28;20045;-81
2023/03/13 03:24:28;;;;;;;19.27;9.00;;;;;;;7.12;55.50;101331.34;4974220;28;20034;-81
2023/03/13 03:26:53;;;;;;;17.88;7.97;;;;;;;7.06;55.61;101318.31;4973942;28;20117;-81
2023/03/13 03:29:19;;;;;;;19.52;10.25;;;;;;;7.07;55.49;101329.91;4974272;28;20026;-84
2023/03/13 03:31:44;;;;;;;24.75;11.25;;;;;;;7.10;55.50;101327.91;4974170;28;20030;-81
2023/03/13 03:34:10;;;;;;;16.63;9.48;;;;;;;7.03;55.31;101331.88;4973900;28;20062;-81
2023/03/13 03:36:35;;;;;;;27.63;10.52;;;;;;;7.00;55.46;101336.56;4974201;28;20114;-81
2023/03/13 03:39:01;;;;;;;44.65;13.25;;;;;;;7.02;56.24;101340.00;4974012;28;20475;-82
2023/03/13 03:41:26;;;;;;;31.23;11.50;;;;;;;6.98;56.17;101349.13;4974344;28;20038;-80
2023/03/13 03:43:51;;;;;;;25.10;11.13;;;;;;;6.95;56.63;101344.81;4974214;28;20411;-81
2023/03/13 03:46:17;;;;;;;27.20;10.57;;;;;;;6.90;56.52;101338.00;4974145;28;20047;-82
2023/03/13 03:48:42;;;;;;;25.13;11.80;;;;;;;6.98;56.43;101338.44;4973981;28;20031;-82
2023/03/13 03:51:08;;;;;;;27.70;10.23;;;;;;;6.98;56.19;101341.09;4974039;28;20091;-82
2023/03/13 03:53:33;;;;;;;25.40;13.80;;;;;;;6.93;56.26;101335.16;4973580;28;20039;-81
2023/03/13 03:56:00;;;;;;;21.95;12.48;;;;;;;6.89;56.46;101344.28;4973907;28;20037;-80
2023/03/13 03:58:25;;;;;;;28.15;11.60;;;;;;;6.70;57.09;101340.88;4973949;28;20046;-81
2023/03/13 04:00:50;;;;;;;33.08;12.40;;;;;;;6.69;56.85;101350.72;4974003;28;20026;-81
2023/03/13 04:03:16;;;;;;;29.90;12.40;;;;;;;6.69;57.13;101345.38;4973742;28;20035;-80
2023/03/13 04:05:42;;;;;;;23.38;13.35;;;;;;;6.72;57.27;101347.03;4980393;28;20023;-81
2023/03/13 04:08:08;;;;;;;25.88;13.90;;;;;;;6.61;57.25;101352.06;4993043;28;20042;-81
2023/03/13 04:10:34;;;;;;;38.38;14.80;;;;;;;6.67;57.67;101354.41;4987634;28;20526;-81
2023/03/13 04:13:00;;;;;;;57.15;39.42;;;;;;;6.71;57.54;101369.34;4973607;28;20490;-84
2023/03/13 04:15:25;;;;;;;45.70;19.70;;;;;;;6.61;57.16;101354.72;4972543;28;20038;-81
2023/03/13 04:17:50;;;;;;;39.58;16.23;;;;;;;6.65;57.23;101373.22;4975013;28;20393;-88
2023/03/13 04:20:16;;;;;;;38.03;15.32;;;;;;;6.66;57.08;101372.28;4980293;28;20030;-87
2023/03/13 04:22:42;;;;;;;36.50;16.95;;;;;;;6.58;57.51;101382.50;4976677;28;20035;-87
2023/03/13 04:25:08;;;;;;;42.88;17.42;;;;;;;6.55;57.55;101386.19;4968140;28;20074;-83
2023/03/13 04:27:33;;;;;;;68.78;17.95;;;;;;;6.46;57.90;101383.13;4962186;28;20511;-81
2023/03/13 04:29:59;;;;;;;55.65;18.10;;;;;;;6.53;57.76;101396.13;4964076;28;20034;-82
2023/03/13 04:32:25;;;;;;;31.73;13.10;;;;;;;6.39;58.00;101390.59;4963316;28;20077;-82
2023/03/13 04:34:50;;;;;;;35.05;13.65;;;;;;;6.44;58.14;101393.06;4959000;28;20092;-82
2023/03/13 04:37:16;;;;;;;42.03;13.27;;;;;;;6.39;58.03;101390.59;4953789;28;20415;-83
2023/03/13 04:39:42;;;;;;;42.10;13.38;;;;;;;6.31;57.80;101395.50;4953365;28;20409;-81
2023/03/13 04:42:09;;;;;;;51.70;14.40;;;;;;;6.27;58.10;101388.56;4953849;28;20117;-82
2023/03/13 04:44:35;;;;;;;43.92;15.38;;;;;;;6.34;58.27;101406.03;4953976;28;20488;-83
2023/03/13 04:47:01;;;;;;;37.75;15.25;;;;;;;6.39;57.93;101403.13;4954217;28;20066;-84
2023/03/13 04:49:26;;;;;;;21.25;12.25;;;;;;;6.41;57.61;101403.91;4955383;28;20470;-85
2023/03/13 04:51:52;;;;;;;34.55;12.98;;;;;;;6.40;57.54;101397.69;4962911;28;20023;-85
2023/03/13 04:54:17;;;;;;;40.17;13.68;;;;;;;6.47;57.83;101423.16;4962476;28;20050;-83
2023/03/13 04:56:43;;;;;;;67.07;14.05;;;;;;;6.42;58.14;101417.16;4963779;28;20083;-84
2023/03/13 04:59:10;;;;;;;44.60;14.45;;;;;;;6.44;57.81;101411.75;4957137;28;20035;-86
2023/03/13 05:01:36;;;;;;;34.95;13.07;;;;;;;6.49;58.21;101421.25;4959263;28;20477;-84
2023/03/13 05:04:01;;;;;;;38.97;16.25;;;;;;;6.63;57.94;101428.56;4972693;28;20177;-82
2023/03/13 05:06:27;;;;;;;36.38;16.13;;;;;;;6.55;57.54;101428.94;4985607;28;20046;-81
2023/03/13 05:08:52;;;;;;;37.90;15.13;;;;;;;6.60;57.58;101443.91;4987172;28;20043;-86
2023/03/13 05:11:18;;;;;;;58.22;15.95;;;;;;;6.53;57.61;101422.84;4974358;28;20106;-88
2023/03/13 05:13:43;;;;;;;71.43;15.85;;;;;;;6.53;57.71;101449.56;4973541;28;20475;-84
2023/03/13 05:16:08;;;;;;;63.33;16.23;;;;;;;6.57;57.83;101440.41;4973507;28;20019;-86
2023/03/13 05:18:34;;;;;;;76.40;16.15;;;;;;;6.65;58.07;101452.53;4972846;28;20042;-87
2023/03/13 05:21:01;;;;;;;68.43;18.35;;;;;;;6.62;58.03;101442.00;4973095;28;20066;-87
2023/03/13 05:23:26;;;;;;;65.30;17.40;;;;;;;6.71;58.19;101438.84;4973143;28;20561;-85
2023/03/13 05:25:52;;;;;;;48.13;17.08;;;;;;;6.71;58.24;101441.50;4980552;28;20066;-86
2023/03/13 05:28:18;;;;;;;56.83;17.13;;;;;;;6.77;58.45;101447.41;4973964;28;20031;-86
2023/03/13 05:30:43;;;;;;;75.43;18.95;;;;;;;6.82;58.54;101450.69;4971578;28;20124;-87
2023/03/13 05:33:08;;;;;;;51.20;20.38;;;;;;;6.75;59.09;101453.78;4973054;28;20046;-84
2023/03/13 05:35:34;;;;;;;83.38;26.00;;;;;;;6.75;59.12;101449.31;4972526;28;20054;-88
2023/03/13 05:37:59;;;;;;;91.45;24.45;;;;;;;6.95;59.69;101458.94;4972468;28;20023;-85
2023/03/13 05:40:25;;;;;;;68.63;26.70;;;;;;;6.99;58.95;101463.19;4978657;28;20135;-90
2023/03/13 05:42:50;;;;;;;58.75;25.83;;;;;;;6.93;59.32;101461.72;4979166;28;20089;-90
2023/03/13 05:45:18;;;;;;;58.38;25.83;;;;;;;7.00;59.56;101464.94;4974746;28;20812;-91
2023/03/13 05:47:44;;;;;;;75.60;26.73;;;;;;;7.03;59.60;101470.09;4970445;28;20043;-90
2023/03/13 05:50:09;;;;;;;59.00;27.98;;;;;;;7.16;59.62;101471.16;4969556;28;20039;-81
2023/03/13 05:52:35;;;;;;;69.13;30.95;;;;;;;7.24;59.47;101479.66;4969770;28;20142;-83
2023/03/13 05:55:00;;;;;;;73.60;32.08;;;;;;;7.26;59.21;101480.44;4969560;28;20418;-81
2023/03/13 05:57:26;;;;;;;69.28;29.73;;;;;;;7.27;58.98;101482.16;4969660;28;20030;-82
2023/03/13 05:59:51;;;;;;;72.65;30.85;;;;;;;7.29;59.46;101484.75;4969718;28;20034;-83
2023/03/13 06:02:17;;;;;;;74.32;28.92;;;;;;;7.44;59.13;101486.59;4974507;28;20165;-83
2023/03/13 06:04:42;;;;;;;80.10;32.30;;;;;;;7.51;58.71;101486.19;4989896;28;20047;-81
2023/03/13 06:07:08;;;;;;;91.88;33.38;;;;;;;7.51;58.92;101487.97;4988642;28;20073;-84
2023/03/13 06:09:33;;;;;;;69.93;29.45;;;;;;;7.44;59.29;101495.47;4969848;28;20046;-83
2023/03/13 06:11:59;;;;;;;84.68;31.90;;;;;;;7.54;59.18;101491.38;4969300;28;20506;-82
2023/03/13 06:14:24;;;;;;;70.57;28.98;;;;;;;7.61;59.00;101495.41;4969974;28;20403;-82
2023/03/13 06:16:50;;;;;;;68.55;31.25;;;;;;;7.80;58.93;101494.41;4987079;28;20122;-83
2023/03/13 06:19:15;;;;;;;100.25;32.67;;;;;;;7.93;58.64;101495.44;4969932;28;20059;-86
2023/03/13 06:21:41;;;;;;;82.93;33.58;;;;;;;7.98;58.24;101493.38;4974249;28;20074;-85
2023/03/13 06:24:06;;;;;;;110.38;33.58;;;;;;;8.25;58.41;101504.31;4973450;28;20027;-81
2023/03/13 06:26:32;;;;;;;108.57;34.33;;;;;;;8.36;57.38;101500.09;4972551;28;20038;-81
2023/03/13 06:28:57;;;;;;;85.20;31.02;;;;;;;8.43;56.77;101496.09;4952827;28;20049;-82
2023/03/13 06:31:23;;;;;;;85.32;29.70;;;;;;;8.44;56.67;101503.16;4971342;28;20070;-84
2023/03/13 06:33:55;;;;;;;79.43;30.45;;;;;;;8.30;56.56;101505.81;4972451;28;20055;-85
2023/03/13 06:36:24;;;;;;;66.90;29.98;;;;;;;8.47;56.55;101497.63;4977141;28;20479;-86
2023/03/13 06:38:49;;;;;;;69.25;31.90;;;;;;;8.71;56.02;101498.84;4978588;28;20033;-85
2023/03/13 06:41:15;;;;;;;80.90;30.20;;;;;;;8.77;55.38;101499.47;4976438;28;20034;-88
2023/03/13 06:43:40;;;;;;;71.75;28.08;;;;;;;8.84;53.98;101484.75;4975808;28;20577;-90
2023/03/13 06:46:07;;;;;;;64.28;26.23;;;;;;;8.90;53.57;101503.16;4976449;28;20031;-87
2023/03/13 06:48:33;;;;;;;76.03;28.95;;;;;;;9.13;53.60;101491.84;4973918;28;20391;-83
2023/03/13 06:50:59;;;;;;;103.78;31.40;;;;;;;9.32;52.88;101492.44;4972133;28;20033;-85
2023/03/13 06:53:24;;;;;;;80.20;29.23;;;;;;;9.32;53.25;101487.09;4972907;28;20033;-85
2023/03/13 06:55:50;;;;;;;87.85;28.92;;;;;;;9.51;52.84;101481.44;4974025;28;20465;-83
2023/03/13 06:58:16;;;;;;;79.53;30.77;;;;;;;9.73;52.17;101488.00;4974463;28;20110;-84
2023/03/13 07:00:43;;;;;;;66.20;31.67;;;;;;;9.74;52.06;101494.25;4985348;28;20046;-83
2023/03/13 07:03:09;;;;;;;81.00;30.10;;;;;;;9.82;51.82;101491.91;4982951;28;20038;-79
2023/03/13 07:05:35;;;;;;;59.67;28.63;;;;;;;9.94;51.33;101495.66;4994037;28;20030;-80
2023/03/13 07:08:00;;;;;;;74.63;26.63;;;;;;;10.03;50.71;101489.69;4993424;28;20031;-79
2023/03/13 07:10:26;;;;;;;62.42;29.63;;;;;;;10.12;50.46;101494.44;4984248;28;20538;-81
2023/03/13 07:12:51;;;;;;;71.53;27.85;;;;;;;10.16;50.64;101485.22;4956135;28;20049;-81
2023/03/13 07:15:17;;;;;;;67.57;28.92;;;;;;;10.28;49.61;101485.28;4981660;28;20114;-85
2023/03/13 07:17:42;;;;;;;94.50;29.73;;;;;;;10.34;50.05;101494.75;4975329;28;20030;-88
2023/03/13 07:20:09;;;;;;;70.07;29.85;;;;;;;10.24;49.53;101497.19;4973094;28;20491;-90
2023/03/13 07:22:38;;;;;;;68.68;29.73;;;;;;;10.30;49.84;101504.03;4972215;28;20023;-93
2023/03/13 07:25:04;;;;;;;62.53;32.85;;;;;;;10.16;50.02;101483.41;5004922;28;20037;-85
2023/03/13 07:27:31;;;;;;;60.67;28.33;;;;;;;10.36;49.43;101503.63;4993415;28;20015;-88
2023/03/13 07:29:56;;;;;;;59.45;28.80;;;;;;;10.44;49.35;101485.13;4989863;28;20138;-85
2023/03/13 07:32:22;;;;;;;67.55;26.98;;;;;;;10.65;48.82;101504.31;4988427;28;20023;-85
2023/03/13 07:34:48;;;;;;;32.15;13.65;;;;;;;10.79;46.91;101498.88;4986997;28;20043;-85
2023/03/13 07:37:15;;;;;;;49.58;13.73;;;;;;;10.84;45.00;101505.69;5010152;28;20062;-86
2023/03/13 07:39:42;;;;;;;37.58;10.13;;;;;;;10.82;42.75;101502.19;4975517;28;20042;-86
2023/03/13 07:42:10;;;;;;;31.40;9.20;;;;;;;10.88;43.15;101501.81;4980153;28;20023;-85
2023/03/13 07:44:35;;;;;;;30.38;10.85;;;;;;;10.77;42.97;101507.06;4973459;28;20027;-87
2023/03/13 07:47:01;;;;;;;31.83;9.32;;;;;;;10.80;43.14;101487.13;4973428;28;20029;-85
2023/03/13 07:49:26;;;;;;;22.27;8.27;;;;;;;10.99;42.28;101497.50;4976182;28;20486;-89
2023/03/13 07:51:52;;;;;;;30.52;6.95;;;;;;;10.91;39.09;101487.28;4981338;28;20035;-86
2023/03/13 07:54:17;;;;;;;24.83;7.90;;;;;;;10.91;39.23;101496.22;4981480;28;20081;-88
2023/03/13 07:56:43;;;;;;;17.90;5.18;;;;;;;10.88;38.07;101496.44;4979057;28;20023;-84
2023/03/13 07:59:09;;;;;;;19.80;6.40;;;;;;;10.85;38.40;101491.25;4988087;28;20095;-83
2023/03/13 08:01:34;;;;;;;30.42;6.63;;;;;;;10.90;39.18;101494.50;4992003;28;20037;-81
2023/03/13 08:04:00;;;;;;;16.80;3.13;;;;;;;10.79;34.78;101502.41;4984861;28;20023;-85
2023/03/13 08:06:29;;;;;;;5.78;2.40;;;;;;;10.78;33.04;101491.78;4979765;28;20031;-83
2023/03/13 08:08:57;;;;;;;21.25;3.83;;;;;;;10.76;32.99;101483.78;4975279;28;20046;-81
2023/03/13 08:11:24;;;;;;;10.95;2.63;;;;;;;10.76;33.24;101494.56;4981506;28;20058;-87
2023/03/13 08:13:51;;;;;;;33.40;7.90;;;;;;;10.85;33.43;101502.03;4980750;28;20026;-85
2023/03/13 08:16:18;;;;;;;13.10;2.85;;;;;;;10.93;32.67;101501.47;4979818;28;20026;-85
2023/03/13 08:18:47;;;;;;;45.67;5.65;;;;;;;11.01;33.77;101495.59;4983930;28;20027;-84
2023/03/13 08:21:15;;;;;;;12.98;2.22;;;;;;;11.24;33.21;101502.91;4979260;28;20029;-84
2023/03/13 08:23:41;;;;;;;23.10;3.10;;;;;;;11.30;33.09;101479.09;4976209;28;20396;-85
2023/03/13 08:26:14;;;;;;;18.77;2.83;;;;;;;11.43;33.63;101487.19;4974021;28;20057;-83
2023/03/13 08:28:40;;;;;;;12.70;2.75;;;;;;;11.55;33.08;101486.31;4973131;28;20405;-80
2023/03/13 08:31:24;;;;;;;33.22;3.75;;;;;;;11.51;32.42;101490.16;4972867;28;20038;-89
2023/03/13 08:33:49;;;;;;;8.50;2.50;;;;;;;11.50;32.76;101482.22;4975166;28;20042;-91
2023/03/13 08:36:24;;;;;;;7.13;1.98;;;;;;;11.43;32.94;101476.41;5007033;28;20034;-85
2023/03/13 08:38:51;;;;;;;14.40;3.03;;;;;;;11.26;33.23;101480.28;4976181;28;20046;-88
2023/03/13 08:41:20;;;;;;;29.75;3.60;;;;;;;11.14;32.72;101496.44;4977023;28;20031;-90
2023/03/13 08:43:46;;;;;;;10.40;2.45;;;;;;;11.02;33.59;101492.78;4976863;28;20037;-89
2023/03/13 08:46:12;;;;;;;24.33;3.17;;;;;;;11.07;33.75;101484.38;4975739;28;20031;-87
2023/03/13 08:48:38;;;;;;;10.52;2.08;;;;;;;11.14;33.55;101469.50;4974536;28;20078;-87
2023/03/13 08:51:09;;;;;;;44.67;6.10;;;;;;;11.25;34.23;101488.47;4978563;28;20449;-85
2023/03/13 08:53:37;;;;;;;38.40;5.15;;;;;;;11.30;34.12;101483.63;4995937;28;20034;-85
2023/03/13 08:56:03;;;;;;;25.95;2.83;;;;;;;11.55;34.45;101497.06;4989692;28;20107;-82
2023/03/13 08:58:29;;;;;;;14.60;2.20;;;;;;;11.63;33.26;101499.19;4997149;28;20034;-84
2023/03/13 09:01:02;;;;;;;12.27;2.17;;;;;;;11.66;34.17;101497.16;4986031;28;20039;-83
2023/03/13 09:03:27;;;;;;;;;;;;;;;11.74;34.02;101496.66;4975135;28;20558;-84
2023/03/13 09:05:53;;;;;;;15.65;2.70;;;;;;;11.74;34.35;101492.09;4973804;28;19960;-85
2023/03/13 09:08:18;;;;;;;26.25;4.38;;;;;;;11.89;34.97;101507.19;4973103;28;20049;-87
2023/03/13 09:10:43;;;;;;;21.02;3.55;;;;;;;11.85;34.53;101481.41;4987859;28;20023;-88
2023/03/13 09:13:09;;;;;;;9.07;2.60;;;;;;;11.90;35.09;101487.31;4973372;28;20394;-91
2023/03/13 09:15:34;;;;;;;25.80;5.28;;;;;;;12.02;35.17;101490.94;4977373;28;20494;-82
2023/03/13 09:18:00;;;;;;;13.35;3.10;;;;;;;11.94;34.37;101483.44;4976406;28;20407;-83
2023/03/13 09:20:25;;;;;;;16.75;4.10;;;;;;;12.02;36.92;101482.03;4975467;28;20483;-83
2023/03/13 09:22:51;;;;;;;23.45;3.13;;;;;;;12.18;36.83;101485.28;4975831;28;20031;-83
2023/03/13 09:25:16;;;;;;;15.43;3.15;;;;;;;12.21;37.26;101485.06;4976452;28;20023;-83
2023/03/13 09:27:42;;;;;;;12.20;2.35;;;;;;;12.24;36.52;101490.22;4975818;28;20066;-81
2023/03/13 09:30:08;;;;;;;27.92;3.70;;;;;;;12.00;37.92;101480.28;4975587;28;20375;-82
2023/03/13 09:32:33;;;;;;;16.25;2.20;;;;;;;11.95;37.49;101484.31;4975611;28;20071;-90
2023/03/13 09:34:59;;;;;;;15.15;3.38;;;;;;;11.91;38.82;101477.41;4978552;28;20063;-93
2023/03/13 09:37:25;;;;;;;13.93;3.30;;;;;;;11.90;38.90;101491.84;4977821;28;20027;-89
2023/03/13 09:40:14;;;;;;;21.48;5.10;;;;;;;11.64;40.08;101496.41;4995027;28;20050;-88
2023/03/13 09:42:46;;;;;;;17.67;3.40;;;;;;;11.66;40.68;101493.59;4993511;28;20702;-88
2023/03/13 09:45:22;;;;;;;16.20;4.20;;;;;;;11.72;40.78;101499.44;4993998;28;20038;-88
2023/03/13 09:47:54;;;;;;;26.95;7.50;;;;;;;11.69;41.10;101513.09;4995310;28;20769;-86
2023/03/13 09:50:28;;;;;;;16.10;3.03;;;;;;;11.62;41.99;101519.06;4992343;28;20141;-85
2023/03/13 09:52:58;;;;;;;32.35;7.47;;;;;;;11.63;43.28;101509.97;4999338;28;20082;-84
2023/03/13 09:55:30;;;;;;;14.23;4.13;;;;;;;11.61;43.12;101518.19;5010864;28;20042;-83
2023/03/13 09:58:03;;;;;;;26.25;4.32;;;;;;;11.50;43.12;101515.38;5006070;28;20086;-84
2023/03/13 10:00:30;;;;;;;16.02;3.63;;;;;;;11.37;43.97;101509.16;4988934;28;20038;-87
2023/03/13 10:03:14;;;;;;;10.80;2.38;;;;;;;11.41;44.01;101502.56;4989432;28;20038;-81
2023/03/13 10:05:48;;;;;;;6.72;2.78;;;;;;;11.19;45.22;101497.00;4988920;28;20548;-84
2023/03/13 10:08:26;;;;;;;23.42;3.35;;;;;;;11.08;44.61;101499.56;4992141;28;20053;-82
2023/03/13 10:11:26;;;;;;;15.73;3.28;;;;;;;11.20;45.14;101506.78;4982483;28;20046;-85
2023/03/13 10:14:10;;;;;;;9.43;2.35;;;;;;;11.39;44.19;101507.22;4971830;28;20506;-85
2023/03/13 10:17:32;;;;;;;13.70;3.03;;;;;;;11.43;43.53;101503.34;4971568;28;20049;-86
2023/03/13 10:20:09;;;;;;;16.10;3.58;;;;;;;11.42;43.80;101512.38;4911428;29;20099;-83
2023/03/13 10:22:36;;;;;;;26.10;3.72;;;;;;;11.29;44.56;101487.28;4911695;29;20036;-86
2023/03/13 10:25:26;;;;;;;7.28;2.70;;;;;;;11.51;44.49;101500.94;4911282;29;20063;-84
2023/03/13 10:27:52;;;;;;;13.00;2.55;;;;;;;11.60;43.88;101494.91;4913189;29;20528;-87
2023/03/13 10:30:29;;;;;;;10.63;2.58;;;;;;;11.66;42.83;101499.84;4864878;29;20056;-86
2023/03/13 10:33:14;;;;;;;19.98;2.35;;;;;;;11.67;43.07;101482.72;4865576;29;20040;-85
2023/03/13 10:35:41;;;;;;;12.63;2.50;;;;;;;11.65;42.61;101483.81;4911924;29;20074;-84
2023/03/13 10:38:11;;;;;;;17.23;3.08;;;;;;;11.60;42.30;101489.50;4913277;29;20652;-85
2023/03/13 10:40:37;;;;;;;31.67;4.30;;;;;;;11.68;43.61;101479.03;4912101;29;20043;-85
2023/03/13 10:43:15;;;;;;;101.50;14.77;;;;;;;11.70;43.92;101477.13;4912777;29;20040;-85
2023/03/13 10:45:41;;;;;;;17.65;3.55;;;;;;;11.71;43.41;101470.75;4913745;29;20032;-86
2023/03/13 10:48:18;;;;;;;15.90;3.10;;;;;;;11.64;44.41;101480.25;4913173;29;20032;-86
2023/03/13 10:51:03;;;;;;;14.63;2.85;;;;;;;11.64;43.82;101468.59;4961336;28;20034;-85
2023/03/13 10:53:28;;;;;;;18.77;3.13;;;;;;;11.49;44.00;101473.28;4993778;28;20042;-83
2023/03/13 10:56:15;;;;;;;17.50;3.55;;;;;;;11.49;44.18;101470.56;4983098;28;20066;-85
2023/03/13 10:58:44;;;;;;;24.83;2.90;;;;;;;11.67;43.89;101474.63;4971103;28;20097;-84
2023/03/13 11:01:41;;;;;;;10.48;2.60;;;;;;;11.82;44.14;101459.22;4971116;28;20478;-83
2023/03/13 11:04:31;;;;;;;6.82;2.70;;;;;;;12.06;43.10;101475.41;4971323;28;20046;-84
2023/03/13 11:07:04;;;;;;;31.98;3.40;;;;;;;11.99;43.42;101453.41;4971162;28;20190;-85
2023/03/13 11:09:31;;;;;;;15.43;4.32;;;;;;;11.97;43.20;101450.84;4971702;28;20031;-84
2023/03/13 11:12:19;;;;;;;19.55;3.13;;;;;;;11.97;44.28;101456.25;4971319;28;20034;-87
2023/03/13 11:14:44;;;;;;;17.13;3.13;;;;;;;12.02;42.97;101447.81;4972226;28;20631;-86
2023/03/13 11:17:16;;;;;;;16.17;2.67;;;;;;;12.06;43.27;101449.31;4972364;28;20035;-84
2023/03/13 11:19:47;;;;;;;23.35;3.58;;;;;;;12.00;44.03;101453.31;4973018;28;20027;-86
2023/03/13 11:22:12;;;;;;;20.13;2.90;;;;;;;11.91;43.09;101440.53;4974112;28;20034;-86
2023/03/13 11:25:12;;;;;;;13.57;5.20;;;;;;;11.83;44.08;101440.22;4980312;28;20557;-84